Time;durP1;ratioP1;P1;durP2;ratioP2;P2;SDS_P1;SDS_P2;PMS_P1;PMS_P2;Temp;Humidity;BMP_temperature;BMP_pressure;BME280_temperature;BME280_humidity;BME280_pressure;Samples;Min_cycle;Max_cycle;Signal;HPM_P1;HPM_P2
2022/07/26 00:00:18;;;;;;;42.35;24.88;;;22.80;99.90;;;;;;2104848;28;20024;-74
2022/07/26 00:01:20;;;;;;;29.77;25.05;;;22.80;99.90;;;;;;2103847;28;20019;-73
2022/07/26 00:02:21;;;;;;;30.48;25.00;;;22.80;99.90;;;;;;2104707;28;20028;-74
2022/07/26 00:03:21;;;;;;;29.58;24.48;;;22.90;99.90;;;;;;2103812;28;20162;-73
2022/07/26 00:04:22;;;;;;;25.60;22.67;;;22.90;99.90;;;;;;2103920;28;20070;-73
2022/07/26 00:05:23;;;;;;;28.42;23.75;;;22.90;99.90;;;;;;2103246;28;20020;-73
2022/07/26 00:06:24;;;;;;;26.88;22.10;;;22.90;99.90;;;;;;2104649;28;20024;-73
2022/07/26 00:07:25;;;;;;;26.33;22.88;;;22.90;99.90;;;;;;2104060;28;20032;-75
2022/07/26 00:08:25;;;;;;;27.40;22.83;;;22.90;99.90;;;;;;2104705;28;20050;-74
2022/07/26 00:09:26;;;;;;;26.00;21.70;;;22.80;99.90;;;;;;2103761;28;20035;-73
2022/07/26 00:10:27;;;;;;;27.80;21.17;;;22.80;99.90;;;;;;2105155;28;20024;-74
2022/07/26 00:11:29;;;;;;;26.65;20.98;;;22.80;99.90;;;;;;2103888;28;20024;-73
2022/07/26 00:12:30;;;;;;;21.98;19.33;;;22.80;99.90;;;;;;2104259;28;20522;-73
2022/07/26 00:13:30;;;;;;;20.90;18.25;;;22.80;99.90;;;;;;2102904;28;20035;-73
2022/07/26 00:14:31;;;;;;;19.48;17.38;;;22.80;99.90;;;;;;2104564;28;20047;-73
2022/07/26 00:15:32;;;;;;;20.23;16.80;;;22.80;99.90;;;;;;2103669;28;20028;-74
2022/07/26 00:16:34;;;;;;;20.13;16.75;;;22.80;99.90;;;;;;2105721;28;20082;-75
2022/07/26 00:17:35;;;;;;;19.30;16.65;;;22.80;99.90;;;;;;2105991;28;20032;-75
2022/07/26 00:18:36;;;;;;;19.70;16.55;;;22.80;99.90;;;;;;2103851;28;20024;-74
2022/07/26 00:19:37;;;;;;;19.50;15.40;;;22.80;99.90;;;;;;2104939;28;20026;-75
2022/07/26 00:20:38;;;;;;;18.13;15.75;;;22.80;99.90;;;;;;2104083;28;20028;-75
2022/07/26 00:21:38;;;;;;;18.13;15.00;;;22.80;99.90;;;;;;2104998;28;20020;-74
2022/07/26 00:22:40;;;;;;;20.30;17.40;;;22.80;99.90;;;;;;2094778;28;20109;-74
2022/07/26 00:23:41;;;;;;;17.88;15.98;;;22.70;99.90;;;;;;2095870;28;20024;-74
2022/07/26 00:24:41;;;;;;;21.65;17.13;;;22.70;99.90;;;;;;2097189;28;20525;-74
2022/07/26 00:25:42;;;;;;;20.98;16.88;;;22.70;99.90;;;;;;2104582;28;20032;-74
2022/07/26 00:26:43;;;;;;;18.38;15.65;;;22.70;99.90;;;;;;2103855;28;20028;-74
2022/07/26 00:27:43;;;;;;;29.35;22.73;;;22.70;99.90;;;;;;2104189;28;20020;-74
2022/07/26 00:28:44;;;;;;;28.23;23.17;;;22.70;99.90;;;;;;2103459;28;20024;-73
2022/07/26 00:29:45;;;;;;;28.83;22.02;;;22.70;99.90;;;;;;2105052;28;20027;-74
2022/07/26 00:30:45;;;;;;;34.42;26.13;;;22.70;99.90;;;;;;2104496;28;20040;-73
2022/07/26 00:31:46;;;;;;;35.47;28.05;;;22.70;99.90;;;;;;2104992;28;20071;-75
2022/07/26 00:32:47;;;;;;;40.22;30.55;;;22.70;99.90;;;;;;2098829;28;20120;-74
2022/07/26 00:33:48;;;;;;;42.65;33.00;;;22.70;99.90;;;;;;2099741;28;20119;-74
2022/07/26 00:34:50;;;;;;;39.47;31.50;;;22.70;99.90;;;;;;2108938;28;20031;-73
2022/07/26 00:35:51;;;;;;;43.88;33.95;;;22.70;99.90;;;;;;2109118;28;20024;-72
2022/07/26 00:36:51;;;;;;;43.92;35.53;;;22.70;99.90;;;;;;2105233;28;20634;-73
2022/07/26 00:37:52;;;;;;;45.85;36.35;;;22.70;99.90;;;;;;2106981;28;20472;-72
2022/07/26 00:38:52;;;;;;;42.03;34.00;;;22.70;99.90;;;;;;2109699;28;20091;-73
2022/07/26 00:39:53;;;;;;;47.28;37.45;;;22.70;99.90;;;;;;2111495;28;20031;-73
2022/07/26 00:40:54;;;;;;;49.10;38.60;;;22.70;99.90;;;;;;2111036;28;20444;-73
2022/07/26 00:41:55;;;;;;;42.65;34.10;;;22.60;99.90;;;;;;2109035;28;20108;-73
2022/07/26 00:42:56;;;;;;;40.40;31.38;;;22.60;99.90;;;;;;2108428;28;20047;-73
2022/07/26 00:43:58;;;;;;;47.67;34.35;;;22.60;99.90;;;;;;2109564;28;20032;-74
2022/07/26 00:45:00;;;;;;;40.95;31.45;;;22.50;99.90;;;;;;2109079;28;20016;-74
2022/07/26 00:46:00;;;;;;;46.40;36.30;;;22.50;99.90;;;;;;2107530;28;20020;-74
2022/07/26 00:47:01;;;;;;;43.45;35.40;;;22.50;99.90;;;;;;2107847;28;20028;-73
2022/07/26 00:48:02;;;;;;;45.80;35.90;;;22.50;99.90;;;;;;2108315;28;20024;-74
2022/07/26 00:49:08;;;;;;;45.47;37.40;;;22.50;99.90;;;;;;2109221;28;20043;-73
2022/07/26 00:50:15;;;;;;;48.38;36.65;;;22.50;99.90;;;;;;2110293;28;20423;-73
2022/07/26 00:51:16;;;;;;;49.67;38.83;;;22.50;99.90;;;;;;2106286;28;20123;-73
2022/07/26 00:52:17;;;;;;;44.13;35.47;;;22.50;99.90;;;;;;2107828;28;20035;-72
2022/07/26 00:53:21;;;;;;;49.67;39.15;;;22.50;99.90;;;;;;2097884;28;20028;-72
2022/07/26 00:54:22;;;;;;;50.05;38.78;;;22.50;99.90;;;;;;2098609;28;20032;-72
2022/07/26 00:55:23;;;;;;;51.03;36.97;;;22.40;99.90;;;;;;2106498;28;20051;-73
2022/07/26 00:56:25;;;;;;;52.28;38.05;;;22.40;99.90;;;;;;2108714;28;20024;-73
2022/07/26 00:57:26;;;;;;;51.80;39.55;;;22.40;99.90;;;;;;2100472;28;20055;-72
2022/07/26 00:58:26;;;;;;;50.83;37.10;;;22.40;99.90;;;;;;2100545;28;20051;-73
2022/07/26 00:59:27;;;;;;;51.63;38.28;;;22.40;99.90;;;;;;2108182;28;20032;-73
2022/07/26 01:00:31;;;;;;;48.10;36.90;;;22.40;99.90;;;;;;2106647;28;20089;-74
2022/07/26 01:01:32;;;;;;;53.90;40.15;;;22.30;99.90;;;;;;2106095;28;20043;-72
2022/07/26 01:02:32;;;;;;;52.78;40.88;;;22.40;99.90;;;;;;2106163;28;20115;-73
2022/07/26 01:03:33;;;;;;;51.47;39.85;;;22.40;99.90;;;;;;2105206;28;20054;-73
2022/07/26 01:04:34;;;;;;;56.05;43.35;;;22.30;99.90;;;;;;2106029;28;20020;-73
2022/07/26 01:05:35;;;;;;;63.30;46.75;;;22.30;99.90;;;;;;2105893;28;20478;-72
2022/07/26 01:06:36;;;;;;;70.30;51.15;;;22.30;99.90;;;;;;2106039;28;20024;-72
2022/07/26 01:07:37;;;;;;;66.35;50.97;;;22.30;99.90;;;;;;2106352;28;20071;-73
2022/07/26 01:08:38;;;;;;;77.93;58.78;;;22.30;99.90;;;;;;2104998;28;20043;-73
2022/07/26 01:09:39;;;;;;;85.70;65.40;;;22.30;99.90;;;;;;2106411;28;20103;-73
2022/07/26 01:10:39;;;;;;;82.70;60.75;;;22.30;99.90;;;;;;2105565;28;20031;-73
2022/07/26 01:11:40;;;;;;;99.97;71.95;;;22.30;99.90;;;;;;2106041;28;20031;-73
2022/07/26 01:12:42;;;;;;;88.60;67.05;;;22.30;99.90;;;;;;2105152;28;20027;-73
2022/07/26 01:13:47;;;;;;;90.25;68.32;;;22.30;99.90;;;;;;2106226;28;20056;-72
2022/07/26 01:14:47;;;;;;;98.75;73.55;;;22.30;99.90;;;;;;2104542;28;20034;-73
2022/07/26 01:15:48;;;;;;;96.03;73.68;;;22.20;99.90;;;;;;2105822;28;20043;-73
2022/07/26 01:16:50;;;;;;;101.72;74.38;;;22.20;99.90;;;;;;2105694;28;20099;-73
2022/07/26 01:17:50;;;;;;;95.40;71.70;;;22.20;99.90;;;;;;2105937;28;20043;-73
2022/07/26 01:18:51;;;;;;;89.53;68.72;;;22.20;99.90;;;;;;2104975;28;20625;-72
2022/07/26 01:19:52;;;;;;;90.07;68.80;;;22.20;99.90;;;;;;2106370;28;20374;-73
2022/07/26 01:20:53;;;;;;;97.65;71.45;;;22.20;99.90;;;;;;2105288;28;20495;-73
2022/07/26 01:21:54;;;;;;;90.43;69.05;;;22.20;99.90;;;;;;2106179;28;20052;-72
2022/07/26 01:22:55;;;;;;;93.93;70.70;;;22.20;99.90;;;;;;2105077;28;20029;-73
2022/07/26 01:23:56;;;;;;;97.90;75.28;;;22.30;99.90;;;;;;2106139;28;20035;-73
2022/07/26 01:24:56;;;;;;;89.65;69.40;;;22.30;99.90;;;;;;2105087;28;20024;-72
2022/07/26 01:25:57;;;;;;;90.05;66.97;;;22.30;99.90;;;;;;2106038;28;20134;-71
2022/07/26 01:26:58;;;;;;;88.05;67.85;;;22.30;99.90;;;;;;2104474;28;20036;-73
2022/07/26 01:27:58;;;;;;;81.05;62.40;;;22.30;99.90;;;;;;2105592;28;20049;-73
2022/07/26 01:28:59;;;;;;;55.63;43.95;;;22.30;99.90;;;;;;2104433;28;20478;-73
2022/07/26 01:30:00;;;;;;;51.20;38.22;;;22.30;99.90;;;;;;2106125;28;20043;-75
2022/07/26 01:31:01;;;;;;;47.42;35.08;;;22.30;99.90;;;;;;2105794;28;20024;-73
2022/07/26 01:32:02;;;;;;;38.00;29.35;;;22.30;99.90;;;;;;2106213;28;20023;-72
2022/07/26 01:33:03;;;;;;;34.65;26.33;;;22.30;99.90;;;;;;2105036;28;20028;-73
2022/07/26 01:34:04;;;;;;;30.05;23.50;;;22.30;99.90;;;;;;2106497;28;20107;-72
2022/07/26 01:35:05;;;;;;;28.40;22.45;;;22.30;99.90;;;;;;2105893;28;20032;-72
2022/07/26 01:36:07;;;;;;;27.25;21.92;;;22.20;99.90;;;;;;2105401;28;20074;-73
2022/07/26 01:37:08;;;;;;;27.10;21.70;;;22.20;99.90;;;;;;2106239;28;20383;-72
2022/07/26 01:38:09;;;;;;;28.02;21.30;;;22.10;99.90;;;;;;2107378;28;20038;-72
2022/07/26 01:39:10;;;;;;;25.52;20.48;;;22.10;99.90;;;;;;2098303;28;20039;-72
2022/07/26 01:40:11;;;;;;;26.95;20.80;;;22.00;99.90;;;;;;2096962;28;20136;-73
2022/07/26 01:41:12;;;;;;;26.45;20.55;;;22.00;99.90;;;;;;2106320;28;20052;-73
2022/07/26 01:42:13;;;;;;;26.60;21.35;;;21.90;99.90;;;;;;2107593;28;20680;-72
2022/07/26 01:43:14;;;;;;;32.53;24.40;;;21.90;99.90;;;;;;2104234;28;20046;-71
2022/07/26 01:44:14;;;;;;;33.08;25.30;;;21.90;99.90;;;;;;2096520;28;20514;-73
2022/07/26 01:45:15;;;;;;;36.58;27.52;;;21.80;99.90;;;;;;2105160;28;20026;-73
2022/07/26 01:46:16;;;;;;;35.22;26.85;;;21.80;99.90;;;;;;2107504;28;20016;-74
2022/07/26 01:47:17;;;;;;;36.92;28.60;;;21.80;99.90;;;;;;2105912;28;20024;-74
2022/07/26 01:48:18;;;;;;;40.85;30.38;;;21.70;99.90;;;;;;2106056;28;20017;-74
2022/07/26 01:49:19;;;;;;;38.25;28.52;;;21.70;99.90;;;;;;2105608;28;20028;-72
2022/07/26 01:50:19;;;;;;;44.05;33.25;;;21.70;99.90;;;;;;2105339;28;20127;-72
2022/07/26 01:51:20;;;;;;;42.00;32.28;;;21.70;99.90;;;;;;2104496;28;20028;-72
2022/07/26 01:52:21;;;;;;;47.13;35.35;;;21.70;99.90;;;;;;2105556;28;20036;-71
2022/07/26 01:53:22;;;;;;;49.40;36.28;;;21.70;99.90;;;;;;2105240;28;20039;-73
2022/07/26 01:54:22;;;;;;;46.95;35.65;;;21.60;99.90;;;;;;2105685;28;20050;-73
2022/07/26 01:55:23;;;;;;;49.05;36.13;;;21.50;99.90;;;;;;2104741;28;20055;-72
2022/07/26 01:56:24;;;;;;;48.85;37.00;;;21.40;99.90;;;;;;2105644;28;20792;-71
2022/07/26 01:57:25;;;;;;;49.25;35.42;;;21.20;99.90;;;;;;2104932;28;20093;-74
2022/07/26 01:58:28;;;;;;;47.75;37.15;;;21.10;99.90;;;;;;2106426;28;20031;-73
2022/07/26 01:59:29;;;;;;;49.22;36.05;;;21.00;99.90;;;;;;2097924;28;20426;-73
2022/07/26 02:00:34;;;;;;;45.83;36.25;;;20.90;99.90;;;;;;2106335;28;20107;-72
2022/07/26 02:01:38;;;;;;;49.85;38.30;;;20.90;99.90;;;;;;2106913;27;20036;-73
2022/07/26 02:02:39;;;;;;;55.88;40.78;;;20.70;99.90;;;;;;2097290;28;20041;-73
2022/07/26 02:03:40;;;;;;;52.22;40.58;;;20.70;99.90;;;;;;2097607;28;20025;-72
2022/07/26 02:05:00;;;;;;;52.40;38.95;;;20.60;99.90;;;;;;2106857;28;20016;-73
2022/07/26 02:06:01;;;;;;;49.08;37.60;;;20.60;99.90;;;;;;2106984;28;20016;-72
2022/07/26 02:07:05;;;;;;;51.25;38.67;;;20.50;99.90;;;;;;2105224;28;20631;-71
2022/07/26 02:08:06;;;;;;;50.53;38.50;;;20.50;99.90;;;;;;2105972;28;20047;-71
2022/07/26 02:09:06;;;;;;;60.28;43.55;;;20.50;99.90;;;;;;2105183;28;20110;-71
2022/07/26 02:10:09;;;;;;;59.03;41.75;;;20.50;99.90;;;;;;2106281;28;20023;-72
2022/07/26 02:11:19;;;;;;;53.90;39.40;;;20.50;99.90;;;;;;2105192;28;20438;-72
2022/07/26 02:12:20;;;;;;;52.63;38.85;;;20.50;99.90;;;;;;2106164;28;20047;-71
2022/07/26 02:13:21;;;;;;;50.35;38.40;;;20.50;99.90;;;;;;2105576;28;20032;-72
2022/07/26 02:14:22;;;;;;;46.78;36.25;;;20.50;99.90;;;;;;2106892;28;20024;-73
2022/07/26 02:15:22;;;;;;;46.88;36.42;;;20.50;99.90;;;;;;2106635;28;20543;-72
2022/07/26 02:16:23;;;;;;;46.00;35.13;;;20.50;99.90;;;;;;2105951;28;20028;-74
2022/07/26 02:17:24;;;;;;;49.20;37.03;;;20.50;99.90;;;;;;2098667;28;20075;-73
2022/07/26 02:18:30;;;;;;;46.90;35.30;;;20.50;99.90;;;;;;2104319;28;20032;-73
2022/07/26 02:19:31;;;;;;;43.47;33.42;;;20.50;99.90;;;;;;2112871;28;20051;-72
2022/07/26 02:20:35;;;;;;;45.85;35.00;;;20.50;99.90;;;;;;2106256;28;20019;-73
2022/07/26 02:21:36;;;;;;;45.92;34.20;;;20.50;99.90;;;;;;2106339;28;20031;-72
2022/07/26 02:22:37;;;;;;;45.03;33.85;;;20.50;99.90;;;;;;2105227;28;20027;-73
2022/07/26 02:23:40;;;;;;;46.30;35.15;;;20.50;99.90;;;;;;2098144;28;20115;-73
2022/07/26 02:24:41;;;;;;;52.30;39.58;;;20.50;99.90;;;;;;2105481;28;20024;-72
2022/07/26 02:25:42;;;;;;;54.80;39.67;;;20.50;99.90;;;;;;2106181;28;20436;-73
2022/07/26 02:26:43;;;;;;;50.88;39.28;;;20.50;99.90;;;;;;2105358;28;20139;-72
2022/07/26 02:27:46;;;;;;;49.58;38.25;;;20.40;99.90;;;;;;2106261;28;20080;-73
2022/07/26 02:28:47;;;;;;;51.53;40.08;;;20.40;99.90;;;;;;2104858;28;20035;-73
2022/07/26 02:29:48;;;;;;;54.72;40.75;;;20.40;99.90;;;;;;2106688;28;20519;-73
2022/07/26 02:30:49;;;;;;;52.53;40.03;;;20.40;99.90;;;;;;2106012;28;20107;-73
2022/07/26 02:31:53;;;;;;;50.33;38.90;;;20.40;99.90;;;;;;2106620;28;20555;-72
2022/07/26 02:32:54;;;;;;;50.92;39.10;;;20.40;99.90;;;;;;2104712;28;20028;-73
2022/07/26 02:33:55;;;;;;;49.35;36.40;;;20.30;99.90;;;;;;2105674;28;20027;-72
2022/07/26 02:34:59;;;;;;;49.63;37.17;;;20.40;99.90;;;;;;2098476;28;20390;-72
2022/07/26 02:36:00;;;;;;;47.33;35.53;;;20.30;99.90;;;;;;2105424;28;20110;-72
2022/07/26 02:37:00;;;;;;;47.08;35.33;;;20.30;99.90;;;;;;2104924;28;20024;-72
2022/07/26 02:38:03;;;;;;;48.05;35.17;;;20.30;99.90;;;;;;2105895;28;20047;-72
2022/07/26 02:39:04;;;;;;;43.53;33.95;;;20.30;99.90;;;;;;2104620;28;20642;-73
2022/07/26 02:40:06;;;;;;;48.30;35.92;;;20.30;99.90;;;;;;2096751;28;20031;-72
2022/07/26 02:41:13;;;;;;;44.30;33.97;;;20.30;99.90;;;;;;2104346;28;20028;-74
2022/07/26 02:42:14;;;;;;;46.78;34.95;;;20.30;99.90;;;;;;2104959;28;20102;-73
2022/07/26 02:43:15;;;;;;;45.20;34.33;;;20.30;99.90;;;;;;2104051;28;20057;-74
2022/07/26 02:44:16;;;;;;;44.58;34.72;;;20.40;99.90;;;;;;2106023;28;20599;-74
2022/07/26 02:45:26;;;;;;;44.65;33.50;;;20.40;99.90;;;;;;2105204;28;20020;-74
2022/07/26 02:46:27;;;;;;;43.50;33.72;;;20.40;99.90;;;;;;2097378;28;20017;-73
2022/07/26 02:47:43;;;;;;;42.40;33.00;;;20.40;99.90;;;;;;2095996;28;20035;-74
2022/07/26 02:48:44;;;;;;;40.97;32.03;;;20.50;99.90;;;;;;2085386;28;20099;-73
2022/07/26 02:49:46;;;;;;;42.35;32.45;;;20.50;99.90;;;;;;2098600;28;20028;-74
2022/07/26 02:50:47;;;;;;;44.72;34.03;;;20.60;99.90;;;;;;2098150;28;20028;-74
2022/07/26 02:51:48;;;;;;;40.42;31.92;;;20.60;99.90;;;;;;2106174;28;20028;-73
2022/07/26 02:52:49;;;;;;;39.53;31.73;;;20.70;99.90;;;;;;2105452;28;20139;-71
2022/07/26 02:53:50;;;;;;;36.88;29.65;;;20.70;99.90;;;;;;2105521;28;20125;-74
2022/07/26 02:54:51;;;;;;;37.92;29.55;;;20.70;99.90;;;;;;2105580;28;21636;-71
2022/07/26 02:55:55;;;;;;;36.72;29.63;;;20.70;99.90;;;;;;2105136;28;20469;-73
2022/07/26 02:56:56;;;;;;;38.17;28.88;;;20.80;99.90;;;;;;2096470;28;20025;-74
2022/07/26 02:58:03;;;;;;;37.10;28.60;;;20.80;99.90;;;;;;2099780;28;20035;-72
2022/07/26 02:59:04;;;;;;;38.30;29.02;;;20.80;99.90;;;;;;2098240;28;20021;-73
2022/07/26 03:00:08;;;;;;;32.78;26.90;;;20.90;99.90;;;;;;2105633;28;20632;-73
2022/07/26 03:01:09;;;;;;;33.67;26.65;;;20.90;99.90;;;;;;2106102;28;20016;-73
2022/07/26 03:02:10;;;;;;;34.30;26.65;;;20.90;99.90;;;;;;2105388;28;20045;-74
2022/07/26 03:03:12;;;;;;;35.30;25.88;;;20.90;99.90;;;;;;2104821;28;20016;-74
2022/07/26 03:04:13;;;;;;;32.65;25.58;;;20.90;99.90;;;;;;2105141;28;20225;-74
2022/07/26 03:05:14;;;;;;;31.58;24.50;;;20.90;99.90;;;;;;2104806;28;20095;-74
2022/07/26 03:06:15;;;;;;;29.25;22.25;;;20.90;99.90;;;;;;2104753;28;20024;-73
2022/07/26 03:07:15;;;;;;;26.35;20.83;;;20.90;99.90;;;;;;2100033;28;20029;-73
2022/07/26 03:08:16;;;;;;;26.95;21.20;;;20.90;99.90;;;;;;2101635;28;20024;-73
2022/07/26 03:09:17;;;;;;;27.30;21.40;;;20.90;99.90;;;;;;2104002;28;20807;-74
2022/07/26 03:10:18;;;;;;;27.38;19.85;;;20.90;99.90;;;;;;2105088;28;20047;-73
2022/07/26 03:11:18;;;;;;;23.38;18.70;;;20.90;99.90;;;;;;2105408;28;20020;-73
2022/07/26 03:12:19;;;;;;;22.00;18.27;;;20.90;99.90;;;;;;2105620;28;20502;-73
2022/07/26 03:13:20;;;;;;;24.85;19.10;;;20.90;99.90;;;;;;2105372;28;20089;-73
2022/07/26 03:14:20;;;;;;;24.92;18.65;;;21.00;99.90;;;;;;2096778;28;20036;-75
2022/07/26 03:15:21;;;;;;;24.42;19.92;;;21.00;99.90;;;;;;2096448;28;20025;-74
2022/07/26 03:16:22;;;;;;;25.10;19.20;;;21.00;99.90;;;;;;2105387;28;20020;-71
2022/07/26 03:17:23;;;;;;;25.05;19.45;;;21.00;99.90;;;;;;2104134;28;20035;-73
2022/07/26 03:18:24;;;;;;;24.98;20.13;;;21.00;99.90;;;;;;2104713;28;20024;-72
2022/07/26 03:19:28;;;;;;;24.92;19.17;;;21.00;99.90;;;;;;2104113;28;20119;-72
2022/07/26 03:20:50;;;;;;;25.38;20.00;;;21.00;99.90;;;;;;2105560;28;20059;-73
2022/07/26 03:21:51;;;;;;;24.35;20.20;;;21.00;99.90;;;;;;2094070;28;20020;-73
2022/07/26 03:23:01;;;;;;;25.25;19.95;;;21.00;99.90;;;;;;2104763;28;20029;-73
2022/07/26 03:24:02;;;;;;;24.67;19.50;;;21.00;99.90;;;;;;2104487;28;20086;-73
2022/07/26 03:25:04;;;;;;;23.80;19.48;;;21.10;99.90;;;;;;2095599;28;20526;-73
2022/07/26 03:26:14;;;;;;;26.13;19.13;;;21.10;99.90;;;;;;2096558;28;20025;-74
2022/07/26 03:27:15;;;;;;;24.80;18.00;;;21.10;99.90;;;;;;2104366;28;20024;-75
2022/07/26 03:28:15;;;;;;;22.27;18.20;;;21.10;99.90;;;;;;2105597;28;20056;-74
2022/07/26 03:29:16;;;;;;;23.17;17.75;;;21.00;99.90;;;;;;2104786;28;20027;-73
2022/07/26 03:30:19;;;;;;;26.77;19.48;;;21.00;99.90;;;;;;2105964;28;20070;-75
2022/07/26 03:31:22;;;;;;;27.48;18.20;;;21.00;99.90;;;;;;2105856;28;20524;-74
2022/07/26 03:32:23;;;;;;;23.27;17.98;;;21.00;99.90;;;;;;2105712;28;20028;-75
2022/07/26 03:33:23;;;;;;;25.70;18.65;;;21.00;99.90;;;;;;2105754;28;20674;-74
2022/07/26 03:34:24;;;;;;;21.45;17.52;;;21.00;99.90;;;;;;2106419;28;20047;-75
2022/07/26 03:35:25;;;;;;;24.35;18.77;;;21.00;99.90;;;;;;2107006;28;20028;-76
2022/07/26 03:36:26;;;;;;;24.35;18.80;;;21.00;99.90;;;;;;2106476;28;20020;-77
2022/07/26 03:37:27;;;;;;;23.80;17.98;;;21.00;99.90;;;;;;2105193;28;20515;-76
2022/07/26 03:38:28;;;;;;;21.80;17.35;;;21.00;99.90;;;;;;2104138;28;20091;-75
2022/07/26 03:39:29;;;;;;;24.40;18.60;;;21.00;99.90;;;;;;2105932;28;20548;-75
2022/07/26 03:40:39;;;;;;;23.80;18.33;;;21.00;99.90;;;;;;2106018;28;20136;-75
2022/07/26 03:41:43;;;;;;;22.77;18.80;;;21.00;99.90;;;;;;2098556;28;20032;-75
2022/07/26 03:42:47;;;;;;;21.05;17.55;;;21.00;99.90;;;;;;2095847;28;20090;-75
2022/07/26 03:43:47;;;;;;;22.23;16.55;;;21.00;99.90;;;;;;2097823;28;20028;-74
2022/07/26 03:44:48;;;;;;;21.55;16.58;;;21.00;99.90;;;;;;2106017;28;20390;-75
2022/07/26 03:45:50;;;;;;;19.90;15.85;;;21.00;99.90;;;;;;2105540;28;20028;-74
2022/07/26 03:46:51;;;;;;;18.88;15.18;;;21.00;99.90;;;;;;2105436;28;20024;-75
2022/07/26 03:47:55;;;;;;;19.35;15.60;;;20.90;99.90;;;;;;2106236;28;20024;-75
2022/07/26 03:48:56;;;;;;;18.63;15.20;;;20.90;99.90;;;;;;2105476;28;20032;-73
2022/07/26 03:49:57;;;;;;;20.23;15.52;;;20.90;99.90;;;;;;2105231;28;21814;-73
2022/07/26 03:50:57;;;;;;;18.13;14.18;;;20.90;99.90;;;;;;2103945;28;20074;-73
2022/07/26 03:51:58;;;;;;;17.77;14.38;;;20.90;99.90;;;;;;2104471;28;20139;-73
2022/07/26 03:52:59;;;;;;;17.17;13.95;;;20.90;99.90;;;;;;2104141;28;20109;-74
2022/07/26 03:54:00;;;;;;;17.58;14.23;;;20.90;99.90;;;;;;2105139;28;20024;-73
2022/07/26 03:56:27;;;;;;;17.95;13.88;;;20.90;99.90;;;;;;2103923;28;20035;-73
2022/07/26 03:56:27;;;;;;;18.42;14.00;;;20.90;99.90;;;;;;2104947;28;20024;-73
2022/07/26 03:57:28;;;;;;;18.80;14.57;;;20.90;99.90;;;;;;2104402;28;20020;-73
2022/07/26 03:58:29;;;;;;;20.33;13.98;;;21.00;99.90;;;;;;2104331;28;20551;-73
2022/07/26 03:59:29;;;;;;;19.17;14.68;;;20.90;99.90;;;;;;2104029;28;20032;-72
2022/07/26 04:00:30;;;;;;;19.30;14.80;;;20.90;99.90;;;;;;2105261;28;20405;-72
2022/07/26 04:01:33;;;;;;;18.88;13.88;;;20.90;99.90;;;;;;2104122;28;20105;-72
2022/07/26 04:02:34;;;;;;;18.50;14.10;;;20.90;99.90;;;;;;2104873;28;20111;-74
2022/07/26 04:03:35;;;;;;;19.02;14.43;;;20.90;99.90;;;;;;2104603;28;20032;-74
2022/07/26 04:04:35;;;;;;;17.60;13.82;;;20.90;99.90;;;;;;2104331;28;20386;-75
2022/07/26 04:05:36;;;;;;;20.00;14.38;;;20.90;99.90;;;;;;2104556;28;20394;-75
2022/07/26 04:06:38;;;;;;;17.80;14.15;;;20.80;99.90;;;;;;2104374;28;20024;-75
2022/07/26 04:07:45;;;;;;;19.42;14.13;;;20.80;99.90;;;;;;2097925;28;20047;-74
2022/07/26 04:08:46;;;;;;;20.98;14.48;;;20.80;99.90;;;;;;2105915;28;20032;-74
2022/07/26 04:09:47;;;;;;;19.25;13.93;;;20.80;99.90;;;;;;2106306;28;20036;-75
2022/07/26 04:10:51;;;;;;;21.80;16.02;;;20.80;99.90;;;;;;2106714;28;20103;-76
2022/07/26 04:11:52;;;;;;;31.90;25.65;;;20.80;99.90;;;;;;2107077;28;20095;-74
2022/07/26 04:12:53;;;;;;;23.48;18.92;;;20.80;99.90;;;;;;2106828;28;20484;-74
2022/07/26 04:13:53;;;;;;;19.45;15.90;;;20.80;99.90;;;;;;2098551;28;20457;-76
2022/07/26 04:14:54;;;;;;;18.77;14.65;;;20.80;99.90;;;;;;2098511;28;20055;-73
2022/07/26 04:15:54;;;;;;;18.08;12.88;;;20.80;99.90;;;;;;2107020;28;20043;-75
2022/07/26 04:16:55;;;;;;;17.10;12.38;;;20.80;99.90;;;;;;2106969;28;20028;-74
2022/07/26 04:17:56;;;;;;;15.27;11.02;;;20.80;99.90;;;;;;2107143;28;20027;-75
2022/07/26 04:18:57;;;;;;;18.02;11.23;;;20.80;99.90;;;;;;2105840;28;20063;-75
2022/07/26 04:19:58;;;;;;;15.73;10.07;;;20.80;99.90;;;;;;2105638;28;20032;-76
2022/07/26 04:20:58;;;;;;;12.82;9.60;;;20.80;99.90;;;;;;2105336;28;20027;-75
2022/07/26 04:21:59;;;;;;;11.95;9.50;;;20.90;99.90;;;;;;2106739;28;20273;-74
2022/07/26 04:23:00;;;;;;;12.50;8.90;;;20.90;99.90;;;;;;2106311;28;20549;-74
2022/07/26 04:24:00;;;;;;;11.15;8.18;;;20.90;99.90;;;;;;2106415;28;20019;-75
2022/07/26 04:25:03;;;;;;;10.60;8.52;;;21.00;99.90;;;;;;2107102;28;20060;-75
2022/07/26 04:26:04;;;;;;;10.23;8.40;;;20.90;99.90;;;;;;2106336;28;20091;-75
2022/07/26 04:27:04;;;;;;;10.85;7.95;;;21.00;99.90;;;;;;2106594;28;20066;-74
2022/07/26 04:28:05;;;;;;;10.75;8.27;;;21.00;99.90;;;;;;2106876;28;20557;-75
2022/07/26 04:29:07;;;;;;;13.18;8.50;;;21.00;99.90;;;;;;2106870;28;20050;-74
2022/07/26 04:30:08;;;;;;;10.35;8.00;;;21.00;99.90;;;;;;2106185;28;20035;-73
2022/07/26 04:31:09;;;;;;;9.73;7.82;;;21.00;99.90;;;;;;2106118;28;20036;-75
2022/07/26 04:32:09;;;;;;;11.65;8.13;;;21.00;99.90;;;;;;2106762;28;20071;-74
2022/07/26 04:33:10;;;;;;;12.32;8.38;;;21.10;99.90;;;;;;2101338;28;20040;-73
2022/07/26 04:34:11;;;;;;;13.80;8.70;;;21.10;99.90;;;;;;2103049;28;20032;-74
2022/07/26 04:35:12;;;;;;;11.05;8.25;;;21.10;99.90;;;;;;2106347;28;20024;-75
2022/07/26 04:36:12;;;;;;;11.93;8.60;;;21.10;99.90;;;;;;2106974;28;20024;-74
2022/07/26 04:37:13;;;;;;;10.73;8.02;;;21.10;99.90;;;;;;2106833;28;20046;-73
2022/07/26 04:38:14;;;;;;;10.55;8.02;;;21.10;99.90;;;;;;2106886;28;20135;-73
2022/07/26 04:39:14;;;;;;;13.63;8.48;;;21.10;99.90;;;;;;2107221;28;20053;-73
2022/07/26 04:40:18;;;;;;;11.57;8.40;;;21.10;99.90;;;;;;2106871;28;20031;-73
2022/07/26 04:41:18;;;;;;;11.23;8.55;;;21.10;99.90;;;;;;2107507;28;20036;-73
2022/07/26 04:42:19;;;;;;;14.75;9.07;;;21.10;99.90;;;;;;2106814;28;20108;-73
2022/07/26 04:43:20;;;;;;;11.48;8.85;;;21.10;99.90;;;;;;2106765;28;20047;-73
2022/07/26 04:44:20;;;;;;;11.30;8.68;;;21.10;99.90;;;;;;2106917;28;20602;-74
2022/07/26 04:45:21;;;;;;;10.32;8.18;;;21.10;99.90;;;;;;2106789;28;20032;-73
2022/07/26 04:46:23;;;;;;;12.32;8.20;;;21.20;99.90;;;;;;2106892;28;20035;-73
2022/07/26 04:47:24;;;;;;;10.82;7.80;;;21.20;99.90;;;;;;2106590;28;20054;-73
2022/07/26 04:48:25;;;;;;;13.27;8.30;;;21.20;99.90;;;;;;2106672;28;20378;-73
2022/07/26 04:49:25;;;;;;;12.35;8.02;;;21.30;99.90;;;;;;2107009;28;20417;-74
2022/07/26 04:50:27;;;;;;;10.80;7.40;;;21.40;99.90;;;;;;2106797;28;20024;-74
2022/07/26 04:51:27;;;;;;;10.05;7.65;;;21.40;99.90;;;;;;2106965;28;20023;-73
2022/07/26 04:52:28;;;;;;;10.15;7.40;;;21.40;99.90;;;;;;2106902;28;20074;-73
2022/07/26 04:53:28;;;;;;;10.63;7.43;;;21.40;99.90;;;;;;2106666;28;20051;-74
2022/07/26 04:54:32;;;;;;;10.82;7.68;;;21.40;99.90;;;;;;2108399;28;20032;-73
2022/07/26 04:55:33;;;;;;;9.38;7.40;;;21.40;99.90;;;;;;2106350;28;20115;-73
2022/07/26 04:56:34;;;;;;;13.32;8.15;;;21.50;99.90;;;;;;2097747;28;20086;-73
2022/07/26 04:57:35;;;;;;;14.75;7.90;;;21.50;99.90;;;;;;2105980;28;20077;-74
2022/07/26 04:58:35;;;;;;;10.48;7.25;;;21.50;99.90;;;;;;2106589;28;20081;-73
2022/07/26 04:59:36;;;;;;;9.75;7.53;;;21.50;99.90;;;;;;2106560;28;20112;-73
2022/07/26 05:00:37;;;;;;;9.10;6.88;;;21.50;99.90;;;;;;2105512;28;20028;-74
2022/07/26 05:01:38;;;;;;;8.13;6.60;;;21.50;99.90;;;;;;2097953;28;20029;-74
2022/07/26 05:02:38;;;;;;;7.05;6.30;;;21.50;99.90;;;;;;2106373;28;20048;-74
2022/07/26 05:03:39;;;;;;;8.93;6.47;;;21.50;99.90;;;;;;2105833;28;20850;-73
2022/07/26 05:04:41;;;;;;;7.88;6.05;;;21.50;99.90;;;;;;2105854;28;20540;-74
2022/07/26 05:05:42;;;;;;;10.82;6.45;;;21.50;99.90;;;;;;2106141;28;20119;-73
2022/07/26 05:06:43;;;;;;;10.85;6.90;;;21.60;99.90;;;;;;2106204;28;20019;-74
2022/07/26 05:07:47;;;;;;;8.70;6.35;;;21.50;99.90;;;;;;2106519;28;20035;-74
2022/07/26 05:08:47;;;;;;;10.25;6.63;;;21.50;99.90;;;;;;2105376;28;20119;-73
2022/07/26 05:09:48;;;;;;;10.93;6.57;;;21.50;99.90;;;;;;2107381;28;20046;-73
2022/07/26 05:10:49;;;;;;;8.15;6.03;;;21.50;99.90;;;;;;2108459;28;20128;-73
2022/07/26 05:11:50;;;;;;;10.05;6.70;;;21.50;99.90;;;;;;2106177;28;20034;-73
2022/07/26 05:12:51;;;;;;;7.05;6.00;;;21.50;99.90;;;;;;2107707;28;20057;-74